Somerville, TX (77879)

9:17 AM CST on February 11, 2016 (GMT -0600)
Northeast of Lyons, TX | | Change Station
CLOSE
Current Station
Personal Weather Station
Location: Lyons, TX
Elevation: 308 ft
Nearby Weather Stations

Elev 308 ft 30.40 °N, 96.55 °W | Updated 2 minutes ago

Clear
Clear
62.7 °F
Feels Like 62.7 °F
N
5.0
Wind Variable Wind from SW
Gusts 6.0 mph

Today
High -- | Low -- °F
--% Chance of Precip.
Yesterday
High -- | Low -- °F
Precip. -- in
Pressure 30.18 in
Visibility 10.0 miles
Clouds Clear
Dew Point 43 °F
Humidity 49%
Rainfall 0.00 in
Snow Depth Not available.
7:10 AM 6:11 PM
Waxing Crescent, 12% visible
METAR K11R 111455Z AUTO 23007KT 10SM CLR 16/07 A3018 RMK AO2 T01600068
Pressure 30.18 in
Visibility 10.0 miles
Clouds Clear
Dew Point 43 °F
Humidity 49%
Rainfall 0.00 in
Snow Depth Not available.
7:10 AM 6:11 PM
Waxing Crescent, 12% visible
METAR K11R 111455Z AUTO 23007KT 10SM CLR 16/07 A3018 RMK AO2 T01600068

10-Day Weather Forecast

Almanac

Astronomy

Feb. 11, 2016 Rise Set
Actual Time
Civil Twilight
Nautical Twilight
Astronomical Twilight
Moon
Length of Visible Light
Length of Day
Tomorrow will be .
, % of the Moon is Illuminated

Today's Extremes

State Highs State Lows

Community

WunderPhotos

Upload Photos

1,892,060 photos uploaded!

WunderBlog® & News

Nearby

Air Quality

  Air Quality AQ Index Pollutant
Not available.

Snow Depth

Station Depth Elevation

Earthquake Activity

City Distance Mag. Time & Date
Minimum magnitude displayed is 2.5.

Coastal Water Temperatures

Place Temperature

Stations

Nearby Weather Stations

Station Location Temp. Windchill Dew Point Humidity Wind Precip. Elev Updated Type
                   

Watches & Warnings

There are currently no watches in effect.